sensor_id;sensor_type;location;lat;lon;timestamp;temperature;humidity
22130;DHT22;11231;50.746;4.272;2023-12-04T00:01:21;4.20;99.90
22130;DHT22;11231;50.746;4.272;2023-12-04T00:03:47;4.20;99.90
22130;DHT22;11231;50.746;4.272;2023-12-04T00:06:13;4.20;99.90
22130;DHT22;11231;50.746;4.272;2023-12-04T00:08:40;4.20;99.90
22130;DHT22;11231;50.746;4.272;2023-12-04T00:11:06;4.20;99.90
22130;DHT22;11231;50.746;4.272;2023-12-04T00:13:32;4.20;99.90
22130;DHT22;11231;50.746;4.272;2023-12-04T00:15:59;4.20;99.90
22130;DHT22;11231;50.746;4.272;2023-12-04T00:18:24;4.20;99.90
22130;DHT22;11231;50.746;4.272;2023-12-04T00:20:51;4.20;99.90
22130;DHT22;11231;50.746;4.272;2023-12-04T00:23:17;4.30;99.90
22130;DHT22;11231;50.746;4.272;2023-12-04T00:25:42;4.30;99.90
22130;DHT22;11231;50.746;4.272;2023-12-04T00:28:09;4.30;99.90
22130;DHT22;11231;50.746;4.272;2023-12-04T00:30:34;4.40;99.90
22130;DHT22;11231;50.746;4.272;2023-12-04T00:33:00;4.30;99.90
22130;DHT22;11231;50.746;4.272;2023-12-04T00:35:26;4.30;99.90
22130;DHT22;11231;50.746;4.272;2023-12-04T00:37:52;4.30;99.90
22130;DHT22;11231;50.746;4.272;2023-12-04T00:40:17;4.40;99.90
22130;DHT22;11231;50.746;4.272;2023-12-04T00:42:43;4.30;99.90
22130;DHT22;11231;50.746;4.272;2023-12-04T00:45:09;4.20;99.90
22130;DHT22;11231;50.746;4.272;2023-12-04T00:47:35;4.30;99.90
22130;DHT22;11231;50.746;4.272;2023-12-04T00:50:01;4.40;99.90
22130;DHT22;11231;50.746;4.272;2023-12-04T00:52:26;4.50;99.90
22130;DHT22;11231;50.746;4.272;2023-12-04T00:54:52;4.40;99.90
22130;DHT22;11231;50.746;4.272;2023-12-04T00:57:19;4.30;99.90
22130;DHT22;11231;50.746;4.272;2023-12-04T00:59:45;4.30;99.90
22130;DHT22;11231;50.746;4.272;2023-12-04T01:02:10;4.30;99.90
22130;DHT22;11231;50.746;4.272;2023-12-04T01:04:40;4.30;99.90
22130;DHT22;11231;50.746;4.272;2023-12-04T01:07:06;4.20;99.90
22130;DHT22;11231;50.746;4.272;2023-12-04T01:09:35;4.20;99.90
22130;DHT22;11231;50.746;4.272;2023-12-04T01:12:01;4.20;99.90
22130;DHT22;11231;50.746;4.272;2023-12-04T01:14:26;4.20;99.90
22130;DHT22;11231;50.746;4.272;2023-12-04T01:16:52;4.20;99.90
22130;DHT22;11231;50.746;4.272;2023-12-04T01:19:18;4.20;99.90
22130;DHT22;11231;50.746;4.272;2023-12-04T01:21:44;4.20;99.90
22130;DHT22;11231;50.746;4.272;2023-12-04T01:24:10;4.30;99.90
22130;DHT22;11231;50.746;4.272;2023-12-04T01:26:35;4.30;99.90
22130;DHT22;11231;50.746;4.272;2023-12-04T01:29:01;4.30;99.90
22130;DHT22;11231;50.746;4.272;2023-12-04T01:31:27;4.40;99.90
22130;DHT22;11231;50.746;4.272;2023-12-04T01:33:53;4.40;99.90
22130;DHT22;11231;50.746;4.272;2023-12-04T01:36:19;4.40;99.90
22130;DHT22;11231;50.746;4.272;2023-12-04T01:38:44;4.40;99.90
22130;DHT22;11231;50.746;4.272;2023-12-04T01:41:10;4.30;99.90
22130;DHT22;11231;50.746;4.272;2023-12-04T01:43:36;4.30;99.90
22130;DHT22;11231;50.746;4.272;2023-12-04T01:46:02;4.30;99.90
22130;DHT22;11231;50.746;4.272;2023-12-04T01:48:29;4.20;99.90
22130;DHT22;11231;50.746;4.272;2023-12-04T01:50:55;4.20;99.90
22130;DHT22;11231;50.746;4.272;2023-12-04T01:53:23;4.30;99.90
22130;DHT22;11231;50.746;4.272;2023-12-04T01:55:49;4.30;99.90
22130;DHT22;11231;50.746;4.272;2023-12-04T01:58:15;4.30;99.90
22130;DHT22;11231;50.746;4.272;2023-12-04T02:00:41;4.30;99.90
22130;DHT22;11231;50.746;4.272;2023-12-04T02:03:08;4.30;99.90
22130;DHT22;11231;50.746;4.272;2023-12-04T02:05:35;4.30;99.90
22130;DHT22;11231;50.746;4.272;2023-12-04T02:08:00;4.30;99.90
22130;DHT22;11231;50.746;4.272;2023-12-04T02:10:26;4.10;99.90
22130;DHT22;11231;50.746;4.272;2023-12-04T02:12:52;4.10;99.90
22130;DHT22;11231;50.746;4.272;2023-12-04T02:15:18;4.10;99.90
22130;DHT22;11231;50.746;4.272;2023-12-04T02:17:44;4.00;99.90
22130;DHT22;11231;50.746;4.272;2023-12-04T02:20:13;4.00;99.90
22130;DHT22;11231;50.746;4.272;2023-12-04T02:22:38;4.00;99.90
22130;DHT22;11231;50.746;4.272;2023-12-04T02:25:05;4.00;99.90
22130;DHT22;11231;50.746;4.272;2023-12-04T02:27:42;3.90;99.90
22130;DHT22;11231;50.746;4.272;2023-12-04T02:30:11;4.00;99.90
22130;DHT22;11231;50.746;4.272;2023-12-04T02:32:42;4.10;99.90
22130;DHT22;11231;50.746;4.272;2023-12-04T02:35:10;4.10;99.90
22130;DHT22;11231;50.746;4.272;2023-12-04T02:37:37;4.00;99.90
22130;DHT22;11231;50.746;4.272;2023-12-04T02:40:04;4.00;99.90
22130;DHT22;11231;50.746;4.272;2023-12-04T02:42:32;4.00;99.90
22130;DHT22;11231;50.746;4.272;2023-12-04T02:44:58;4.10;99.90
22130;DHT22;11231;50.746;4.272;2023-12-04T02:47:24;4.00;99.90
22130;DHT22;11231;50.746;4.272;2023-12-04T02:49:49;4.00;99.90
22130;DHT22;11231;50.746;4.272;2023-12-04T02:52:15;4.00;99.90
22130;DHT22;11231;50.746;4.272;2023-12-04T02:54:41;4.00;99.90
22130;DHT22;11231;50.746;4.272;2023-12-04T02:57:07;3.90;99.90
22130;DHT22;11231;50.746;4.272;2023-12-04T02:59:33;3.90;99.90
22130;DHT22;11231;50.746;4.272;2023-12-04T03:01:58;4.00;99.90
22130;DHT22;11231;50.746;4.272;2023-12-04T03:04:24;4.00;99.90
22130;DHT22;11231;50.746;4.272;2023-12-04T03:06:50;3.90;99.90
22130;DHT22;11231;50.746;4.272;2023-12-04T03:09:16;4.00;99.90
22130;DHT22;11231;50.746;4.272;2023-12-04T03:11:42;3.90;99.90
22130;DHT22;11231;50.746;4.272;2023-12-04T03:14:08;3.90;99.90
22130;DHT22;11231;50.746;4.272;2023-12-04T03:16:34;3.90;99.90
22130;DHT22;11231;50.746;4.272;2023-12-04T03:19:00;3.80;99.90
22130;DHT22;11231;50.746;4.272;2023-12-04T03:21:25;3.80;99.90
22130;DHT22;11231;50.746;4.272;2023-12-04T03:23:51;3.80;99.90
22130;DHT22;11231;50.746;4.272;2023-12-04T03:26:17;3.90;99.90
22130;DHT22;11231;50.746;4.272;2023-12-04T03:28:42;3.80;99.90
22130;DHT22;11231;50.746;4.272;2023-12-04T03:31:08;3.80;99.90
22130;DHT22;11231;50.746;4.272;2023-12-04T03:33:34;3.90;99.90
22130;DHT22;11231;50.746;4.272;2023-12-04T03:36:00;3.80;99.90
22130;DHT22;11231;50.746;4.272;2023-12-04T03:38:26;3.80;99.90
22130;DHT22;11231;50.746;4.272;2023-12-04T03:40:52;3.80;99.90
22130;DHT22;11231;50.746;4.272;2023-12-04T03:43:17;3.80;99.90
22130;DHT22;11231;50.746;4.272;2023-12-04T03:45:43;3.80;99.90
22130;DHT22;11231;50.746;4.272;2023-12-04T03:48:09;3.80;99.90
22130;DHT22;11231;50.746;4.272;2023-12-04T03:50:35;3.80;99.90
22130;DHT22;11231;50.746;4.272;2023-12-04T03:53:01;3.80;99.90
22130;DHT22;11231;50.746;4.272;2023-12-04T03:55:26;3.80;99.90
22130;DHT22;11231;50.746;4.272;2023-12-04T03:57:53;3.80;99.90
22130;DHT22;11231;50.746;4.272;2023-12-04T04:00:19;3.80;99.90
22130;DHT22;11231;50.746;4.272;2023-12-04T04:02:45;3.80;99.90
22130;DHT22;11231;50.746;4.272;2023-12-04T04:05:11;3.80;99.90
22130;DHT22;11231;50.746;4.272;2023-12-04T04:07:37;3.80;99.90
22130;DHT22;11231;50.746;4.272;2023-12-04T04:10:03;3.90;99.90
22130;DHT22;11231;50.746;4.272;2023-12-04T04:12:30;3.90;99.90
22130;DHT22;11231;50.746;4.272;2023-12-04T04:14:56;3.90;99.90
22130;DHT22;11231;50.746;4.272;2023-12-04T04:17:22;3.90;99.90
22130;DHT22;11231;50.746;4.272;2023-12-04T04:19:51;3.90;99.90
22130;DHT22;11231;50.746;4.272;2023-12-04T04:22:17;4.00;99.90
22130;DHT22;11231;50.746;4.272;2023-12-04T04:24:43;4.00;99.90
22130;DHT22;11231;50.746;4.272;2023-12-04T04:27:08;3.90;99.90
22130;DHT22;11231;50.746;4.272;2023-12-04T04:29:34;4.00;99.90
22130;DHT22;11231;50.746;4.272;2023-12-04T04:32:00;3.90;99.90
22130;DHT22;11231;50.746;4.272;2023-12-04T04:34:26;4.00;99.90
22130;DHT22;11231;50.746;4.272;2023-12-04T04:36:51;4.00;99.90
22130;DHT22;11231;50.746;4.272;2023-12-04T04:39:17;3.90;99.90
22130;DHT22;11231;50.746;4.272;2023-12-04T04:41:44;3.90;99.90
22130;DHT22;11231;50.746;4.272;2023-12-04T04:44:10;3.90;99.90
22130;DHT22;11231;50.746;4.272;2023-12-04T04:46:35;3.90;99.90
22130;DHT22;11231;50.746;4.272;2023-12-04T04:49:01;3.90;99.90
22130;DHT22;11231;50.746;4.272;2023-12-04T04:51:28;4.00;99.90
22130;DHT22;11231;50.746;4.272;2023-12-04T04:53:55;4.10;99.90
22130;DHT22;11231;50.746;4.272;2023-12-04T04:56:21;4.00;99.90
22130;DHT22;11231;50.746;4.272;2023-12-04T04:58:46;4.10;99.90
22130;DHT22;11231;50.746;4.272;2023-12-04T05:01:12;4.00;99.90
22130;DHT22;11231;50.746;4.272;2023-12-04T05:03:38;4.00;99.90
22130;DHT22;11231;50.746;4.272;2023-12-04T05:06:04;4.10;99.90
22130;DHT22;11231;50.746;4.272;2023-12-04T05:08:30;4.10;99.90
22130;DHT22;11231;50.746;4.272;2023-12-04T05:10:55;4.10;99.90
22130;DHT22;11231;50.746;4.272;2023-12-04T05:13:21;4.20;99.90
22130;DHT22;11231;50.746;4.272;2023-12-04T05:15:47;4.20;99.90
22130;DHT22;11231;50.746;4.272;2023-12-04T05:18:13;4.20;99.90
22130;DHT22;11231;50.746;4.272;2023-12-04T05:20:38;4.20;99.90
22130;DHT22;11231;50.746;4.272;2023-12-04T05:23:04;4.10;99.90
22130;DHT22;11231;50.746;4.272;2023-12-04T05:25:30;4.10;99.90
22130;DHT22;11231;50.746;4.272;2023-12-04T05:27:55;4.10;99.90
22130;DHT22;11231;50.746;4.272;2023-12-04T05:30:21;4.10;99.90
22130;DHT22;11231;50.746;4.272;2023-12-04T05:32:47;4.10;99.90
22130;DHT22;11231;50.746;4.272;2023-12-04T05:35:15;4.10;99.90
22130;DHT22;11231;50.746;4.272;2023-12-04T05:37:41;4.20;99.90
22130;DHT22;11231;50.746;4.272;2023-12-04T05:40:08;4.20;99.90
22130;DHT22;11231;50.746;4.272;2023-12-04T05:42:35;4.20;99.90
22130;DHT22;11231;50.746;4.272;2023-12-04T05:45:01;4.20;99.90
22130;DHT22;11231;50.746;4.272;2023-12-04T05:47:28;4.20;99.90
22130;DHT22;11231;50.746;4.272;2023-12-04T05:49:54;4.20;99.90
22130;DHT22;11231;50.746;4.272;2023-12-04T05:52:20;4.20;99.90
22130;DHT22;11231;50.746;4.272;2023-12-04T05:54:46;4.20;99.90
22130;DHT22;11231;50.746;4.272;2023-12-04T05:57:11;4.30;99.90
22130;DHT22;11231;50.746;4.272;2023-12-04T05:59:37;4.20;99.90
22130;DHT22;11231;50.746;4.272;2023-12-04T06:02:03;4.20;99.90
22130;DHT22;11231;50.746;4.272;2023-12-04T06:04:29;4.20;99.90
22130;DHT22;11231;50.746;4.272;2023-12-04T06:06:55;4.30;99.90
22130;DHT22;11231;50.746;4.272;2023-12-04T06:09:21;4.20;99.90
22130;DHT22;11231;50.746;4.272;2023-12-04T06:11:46;4.30;99.90
22130;DHT22;11231;50.746;4.272;2023-12-04T06:14:12;4.20;99.90
22130;DHT22;11231;50.746;4.272;2023-12-04T06:16:38;4.20;99.90
22130;DHT22;11231;50.746;4.272;2023-12-04T06:19:04;4.20;99.90
22130;DHT22;11231;50.746;4.272;2023-12-04T06:21:30;4.20;99.90
22130;DHT22;11231;50.746;4.272;2023-12-04T06:23:57;4.20;99.90
22130;DHT22;11231;50.746;4.272;2023-12-04T06:26:23;4.20;99.90
22130;DHT22;11231;50.746;4.272;2023-12-04T06:28:49;4.20;99.90
22130;DHT22;11231;50.746;4.272;2023-12-04T06:31:16;4.20;99.90
22130;DHT22;11231;50.746;4.272;2023-12-04T06:33:42;4.30;99.90
22130;DHT22;11231;50.746;4.272;2023-12-04T06:36:08;4.40;99.90
22130;DHT22;11231;50.746;4.272;2023-12-04T06:38:38;4.40;99.90
22130;DHT22;11231;50.746;4.272;2023-12-04T06:41:05;4.50;99.90
22130;DHT22;11231;50.746;4.272;2023-12-04T06:43:31;4.40;99.90
22130;DHT22;11231;50.746;4.272;2023-12-04T06:45:58;4.40;99.90
22130;DHT22;11231;50.746;4.272;2023-12-04T06:48:25;4.40;99.90
22130;DHT22;11231;50.746;4.272;2023-12-04T06:50:51;4.30;99.90
22130;DHT22;11231;50.746;4.272;2023-12-04T06:53:16;4.30;99.90
22130;DHT22;11231;50.746;4.272;2023-12-04T06:55:42;4.40;99.90
22130;DHT22;11231;50.746;4.272;2023-12-04T06:58:08;4.40;99.90
22130;DHT22;11231;50.746;4.272;2023-12-04T07:00:34;4.40;99.90
22130;DHT22;11231;50.746;4.272;2023-12-04T07:03:00;4.50;99.90
22130;DHT22;11231;50.746;4.272;2023-12-04T07:05:25;4.50;99.90
22130;DHT22;11231;50.746;4.272;2023-12-04T07:07:51;4.40;99.90
22130;DHT22;11231;50.746;4.272;2023-12-04T07:10:17;4.50;99.90
22130;DHT22;11231;50.746;4.272;2023-12-04T07:12:44;4.40;99.90
22130;DHT22;11231;50.746;4.272;2023-12-04T07:15:10;4.40;99.90
22130;DHT22;11231;50.746;4.272;2023-12-04T07:17:37;4.40;99.90
22130;DHT22;11231;50.746;4.272;2023-12-04T07:20:03;4.40;99.90
22130;DHT22;11231;50.746;4.272;2023-12-04T07:22:33;4.40;99.90
22130;DHT22;11231;50.746;4.272;2023-12-04T07:24:59;4.40;99.90
22130;DHT22;11231;50.746;4.272;2023-12-04T07:27:25;4.40;99.90
22130;DHT22;11231;50.746;4.272;2023-12-04T07:29:51;4.40;99.90
22130;DHT22;11231;50.746;4.272;2023-12-04T07:32:16;4.40;99.90
22130;DHT22;11231;50.746;4.272;2023-12-04T07:34:44;4.40;99.90
22130;DHT22;11231;50.746;4.272;2023-12-04T07:37:09;4.40;99.90
22130;DHT22;11231;50.746;4.272;2023-12-04T07:39:35;4.30;99.90
22130;DHT22;11231;50.746;4.272;2023-12-04T07:42:01;4.40;99.90
22130;DHT22;11231;50.746;4.272;2023-12-04T07:44:27;4.40;99.90
22130;DHT22;11231;50.746;4.272;2023-12-04T07:46:53;4.40;99.90
22130;DHT22;11231;50.746;4.272;2023-12-04T07:49:19;4.40;99.90
22130;DHT22;11231;50.746;4.272;2023-12-04T07:51:45;4.30;99.90
22130;DHT22;11231;50.746;4.272;2023-12-04T07:54:10;4.30;99.90
22130;DHT22;11231;50.746;4.272;2023-12-04T07:56:37;4.30;99.90
22130;DHT22;11231;50.746;4.272;2023-12-04T07:59:02;4.30;99.90
22130;DHT22;11231;50.746;4.272;2023-12-04T08:01:28;4.30;99.90
22130;DHT22;11231;50.746;4.272;2023-12-04T08:03:54;4.30;99.90
22130;DHT22;11231;50.746;4.272;2023-12-04T08:06:20;4.40;99.90
22130;DHT22;11231;50.746;4.272;2023-12-04T08:08:45;4.40;99.90
22130;DHT22;11231;50.746;4.272;2023-12-04T08:11:11;4.40;99.90
22130;DHT22;11231;50.746;4.272;2023-12-04T08:13:38;4.40;99.90
22130;DHT22;11231;50.746;4.272;2023-12-04T08:16:05;4.40;99.90
22130;DHT22;11231;50.746;4.272;2023-12-04T08:18:31;4.40;99.90
22130;DHT22;11231;50.746;4.272;2023-12-04T08:21:00;4.40;99.90
22130;DHT22;11231;50.746;4.272;2023-12-04T08:23:25;4.40;99.90
22130;DHT22;11231;50.746;4.272;2023-12-04T08:25:51;4.40;99.90
22130;DHT22;11231;50.746;4.272;2023-12-04T08:28:17;4.30;99.90
22130;DHT22;11231;50.746;4.272;2023-12-04T08:30:43;4.40;99.90
22130;DHT22;11231;50.746;4.272;2023-12-04T08:33:08;4.40;99.90
22130;DHT22;11231;50.746;4.272;2023-12-04T08:35:34;4.40;99.90
22130;DHT22;11231;50.746;4.272;2023-12-04T08:38:00;4.30;99.90
22130;DHT22;11231;50.746;4.272;2023-12-04T08:40:26;4.40;99.90
22130;DHT22;11231;50.746;4.272;2023-12-04T08:42:51;4.30;99.90
22130;DHT22;11231;50.746;4.272;2023-12-04T08:45:17;4.30;99.90
22130;DHT22;11231;50.746;4.272;2023-12-04T08:47:44;4.20;99.90
22130;DHT22;11231;50.746;4.272;2023-12-04T08:50:10;4.10;99.90
22130;DHT22;11231;50.746;4.272;2023-12-04T08:52:35;4.10;99.90
22130;DHT22;11231;50.746;4.272;2023-12-04T08:55:01;4.10;99.90
22130;DHT22;11231;50.746;4.272;2023-12-04T08:57:27;4.10;99.90
22130;DHT22;11231;50.746;4.272;2023-12-04T08:59:53;4.20;99.90
22130;DHT22;11231;50.746;4.272;2023-12-04T09:02:19;4.20;99.90
22130;DHT22;11231;50.746;4.272;2023-12-04T09:04:44;4.20;99.90
22130;DHT22;11231;50.746;4.272;2023-12-04T09:07:10;4.20;99.90
22130;DHT22;11231;50.746;4.272;2023-12-04T09:09:36;4.20;99.90
22130;DHT22;11231;50.746;4.272;2023-12-04T09:12:02;4.20;99.90
22130;DHT22;11231;50.746;4.272;2023-12-04T09:14:27;4.30;99.90
22130;DHT22;11231;50.746;4.272;2023-12-04T09:16:54;4.30;99.90
22130;DHT22;11231;50.746;4.272;2023-12-04T09:19:20;4.40;99.90
22130;DHT22;11231;50.746;4.272;2023-12-04T09:21:45;4.30;99.90
22130;DHT22;11231;50.746;4.272;2023-12-04T09:24:12;4.30;99.90
22130;DHT22;11231;50.746;4.272;2023-12-04T09:26:39;4.20;99.90
22130;DHT22;11231;50.746;4.272;2023-12-04T09:29:05;4.10;99.90
22130;DHT22;11231;50.746;4.272;2023-12-04T09:31:30;4.10;99.90
22130;DHT22;11231;50.746;4.272;2023-12-04T09:33:56;4.00;99.90
22130;DHT22;11231;50.746;4.272;2023-12-04T09:36:22;4.00;99.90
22130;DHT22;11231;50.746;4.272;2023-12-04T09:38:48;3.90;99.90
22130;DHT22;11231;50.746;4.272;2023-12-04T09:41:14;4.00;99.90
22130;DHT22;11231;50.746;4.272;2023-12-04T09:43:40;4.00;99.90
22130;DHT22;11231;50.746;4.272;2023-12-04T09:46:08;3.90;99.90
22130;DHT22;11231;50.746;4.272;2023-12-04T09:48:35;3.80;99.90
22130;DHT22;11231;50.746;4.272;2023-12-04T09:51:02;3.80;99.90
22130;DHT22;11231;50.746;4.272;2023-12-04T09:53:30;3.70;99.90
22130;DHT22;11231;50.746;4.272;2023-12-04T09:55:59;3.60;99.90
22130;DHT22;11231;50.746;4.272;2023-12-04T09:58:27;3.50;99.90
22130;DHT22;11231;50.746;4.272;2023-12-04T10:00:54;3.50;99.90
22130;DHT22;11231;50.746;4.272;2023-12-04T10:03:20;3.40;99.90
22130;DHT22;11231;50.746;4.272;2023-12-04T10:05:47;3.40;99.90
22130;DHT22;11231;50.746;4.272;2023-12-04T10:08:14;3.50;99.90
22130;DHT22;11231;50.746;4.272;2023-12-04T10:10:39;3.50;99.90
22130;DHT22;11231;50.746;4.272;2023-12-04T10:13:05;3.60;99.90
22130;DHT22;11231;50.746;4.272;2023-12-04T10:15:32;3.70;99.90
22130;DHT22;11231;50.746;4.272;2023-12-04T10:17:58;3.70;99.90
22130;DHT22;11231;50.746;4.272;2023-12-04T10:20:24;3.60;99.90
22130;DHT22;11231;50.746;4.272;2023-12-04T10:23:00;3.70;99.90
22130;DHT22;11231;50.746;4.272;2023-12-04T10:25:28;3.80;99.90
22130;DHT22;11231;50.746;4.272;2023-12-04T10:28:15;3.80;99.90
22130;DHT22;11231;50.746;4.272;2023-12-04T10:30:41;3.80;99.90
22130;DHT22;11231;50.746;4.272;2023-12-04T10:33:08;3.80;99.90
22130;DHT22;11231;50.746;4.272;2023-12-04T10:35:35;3.80;99.90
22130;DHT22;11231;50.746;4.272;2023-12-04T10:38:05;3.80;99.90
22130;DHT22;11231;50.746;4.272;2023-12-04T10:40:33;3.80;99.90
22130;DHT22;11231;50.746;4.272;2023-12-04T10:45:42;3.70;99.90
22130;DHT22;11231;50.746;4.272;2023-12-04T10:48:09;3.80;99.90
22130;DHT22;11231;50.746;4.272;2023-12-04T10:50:40;3.90;99.90
22130;DHT22;11231;50.746;4.272;2023-12-04T10:53:07;4.10;99.90
22130;DHT22;11231;50.746;4.272;2023-12-04T10:55:34;4.20;99.90
22130;DHT22;11231;50.746;4.272;2023-12-04T10:58:02;4.30;99.90
22130;DHT22;11231;50.746;4.272;2023-12-04T11:00:33;4.40;99.90
22130;DHT22;11231;50.746;4.272;2023-12-04T11:03:25;4.60;99.90
22130;DHT22;11231;50.746;4.272;2023-12-04T11:05:55;4.70;99.90
22130;DHT22;11231;50.746;4.272;2023-12-04T11:08:23;4.60;99.90
22130;DHT22;11231;50.746;4.272;2023-12-04T11:10:58;4.60;99.90
22130;DHT22;11231;50.746;4.272;2023-12-04T11:13:28;4.70;99.90
22130;DHT22;11231;50.746;4.272;2023-12-04T11:16:09;4.80;99.90
22130;DHT22;11231;50.746;4.272;2023-12-04T11:18:41;4.70;99.90
22130;DHT22;11231;50.746;4.272;2023-12-04T11:21:10;4.70;99.90
22130;DHT22;11231;50.746;4.272;2023-12-04T11:23:37;4.70;99.90
22130;DHT22;11231;50.746;4.272;2023-12-04T11:26:04;4.60;99.90
22130;DHT22;11231;50.746;4.272;2023-12-04T11:28:32;4.50;99.90
22130;DHT22;11231;50.746;4.272;2023-12-04T11:30:59;4.50;99.90
22130;DHT22;11231;50.746;4.272;2023-12-04T11:33:26;4.50;99.90
22130;DHT22;11231;50.746;4.272;2023-12-04T11:35:52;4.50;99.90
22130;DHT22;11231;50.746;4.272;2023-12-04T11:38:18;4.50;99.90
22130;DHT22;11231;50.746;4.272;2023-12-04T11:40:46;4.60;99.90
22130;DHT22;11231;50.746;4.272;2023-12-04T11:43:28;4.50;99.90
22130;DHT22;11231;50.746;4.272;2023-12-04T11:46:23;4.60;99.90
22130;DHT22;11231;50.746;4.272;2023-12-04T11:48:50;4.60;99.90
22130;DHT22;11231;50.746;4.272;2023-12-04T11:54:19;4.50;99.90
22130;DHT22;11231;50.746;4.272;2023-12-04T11:59:37;4.80;99.90
22130;DHT22;11231;50.746;4.272;2023-12-04T12:02:10;4.70;99.90
22130;DHT22;11231;50.746;4.272;2023-12-04T12:04:37;4.80;99.90
22130;DHT22;11231;50.746;4.272;2023-12-04T12:07:05;4.80;99.90
22130;DHT22;11231;50.746;4.272;2023-12-04T12:09:34;4.80;99.90
22130;DHT22;11231;50.746;4.272;2023-12-04T12:12:03;4.90;99.90
22130;DHT22;11231;50.746;4.272;2023-12-04T12:14:30;4.90;99.90
22130;DHT22;11231;50.746;4.272;2023-12-04T12:16:59;4.80;99.90
22130;DHT22;11231;50.746;4.272;2023-12-04T12:19:25;4.70;99.90
22130;DHT22;11231;50.746;4.272;2023-12-04T12:21:51;4.90;99.90
22130;DHT22;11231;50.746;4.272;2023-12-04T12:24:18;5.00;99.90
22130;DHT22;11231;50.746;4.272;2023-12-04T12:26:44;5.00;99.90
22130;DHT22;11231;50.746;4.272;2023-12-04T12:29:11;5.10;99.90
22130;DHT22;11231;50.746;4.272;2023-12-04T12:31:36;5.10;99.90
22130;DHT22;11231;50.746;4.272;2023-12-04T12:34:02;5.10;99.90
22130;DHT22;11231;50.746;4.272;2023-12-04T12:36:29;5.20;99.90
22130;DHT22;11231;50.746;4.272;2023-12-04T12:38:55;5.20;99.90
22130;DHT22;11231;50.746;4.272;2023-12-04T12:41:21;5.20;99.90
22130;DHT22;11231;50.746;4.272;2023-12-04T12:43:51;5.20;99.90
22130;DHT22;11231;50.746;4.272;2023-12-04T12:46:17;5.20;99.90
22130;DHT22;11231;50.746;4.272;2023-12-04T12:48:44;5.20;99.90
22130;DHT22;11231;50.746;4.272;2023-12-04T12:51:10;5.10;99.90
22130;DHT22;11231;50.746;4.272;2023-12-04T12:53:38;5.20;99.90
22130;DHT22;11231;50.746;4.272;2023-12-04T12:56:04;5.20;99.90
22130;DHT22;11231;50.746;4.272;2023-12-04T12:58:30;5.30;99.90
22130;DHT22;11231;50.746;4.272;2023-12-04T13:00:56;5.20;99.90
22130;DHT22;11231;50.746;4.272;2023-12-04T13:03:22;5.20;99.90
22130;DHT22;11231;50.746;4.272;2023-12-04T13:05:48;5.40;99.90
22130;DHT22;11231;50.746;4.272;2023-12-04T13:08:14;5.50;99.90
22130;DHT22;11231;50.746;4.272;2023-12-04T13:10:41;5.70;99.90
22130;DHT22;11231;50.746;4.272;2023-12-04T13:13:14;5.70;99.90
22130;DHT22;11231;50.746;4.272;2023-12-04T13:15:40;5.70;99.90
22130;DHT22;11231;50.746;4.272;2023-12-04T13:18:07;5.60;99.90
22130;DHT22;11231;50.746;4.272;2023-12-04T13:20:33;5.60;99.90
22130;DHT22;11231;50.746;4.272;2023-12-04T13:23:00;5.50;99.90
22130;DHT22;11231;50.746;4.272;2023-12-04T13:25:28;5.50;99.90
22130;DHT22;11231;50.746;4.272;2023-12-04T13:27:54;5.40;99.90
22130;DHT22;11231;50.746;4.272;2023-12-04T13:30:20;5.40;99.90
22130;DHT22;11231;50.746;4.272;2023-12-04T13:32:45;5.30;99.90
22130;DHT22;11231;50.746;4.272;2023-12-04T13:35:11;5.40;99.90
22130;DHT22;11231;50.746;4.272;2023-12-04T13:37:38;5.50;99.90
22130;DHT22;11231;50.746;4.272;2023-12-04T13:40:05;5.50;99.90
22130;DHT22;11231;50.746;4.272;2023-12-04T13:42:38;5.50;99.90
22130;DHT22;11231;50.746;4.272;2023-12-04T13:45:22;5.60;99.90
22130;DHT22;11231;50.746;4.272;2023-12-04T13:47:49;5.50;99.90
22130;DHT22;11231;50.746;4.272;2023-12-04T13:50:15;5.50;99.90
22130;DHT22;11231;50.746;4.272;2023-12-04T13:52:41;5.60;99.90
22130;DHT22;11231;50.746;4.272;2023-12-04T13:55:09;5.50;99.90
22130;DHT22;11231;50.746;4.272;2023-12-04T13:57:45;5.60;99.90
22130;DHT22;11231;50.746;4.272;2023-12-04T14:00:34;5.50;99.90
22130;DHT22;11231;50.746;4.272;2023-12-04T14:03:00;5.50;99.90
22130;DHT22;11231;50.746;4.272;2023-12-04T14:05:33;5.50;99.90
22130;DHT22;11231;50.746;4.272;2023-12-04T14:08:00;5.60;99.90
22130;DHT22;11231;50.746;4.272;2023-12-04T14:10:26;5.60;99.90
22130;DHT22;11231;50.746;4.272;2023-12-04T14:12:54;5.50;99.90
22130;DHT22;11231;50.746;4.272;2023-12-04T14:15:19;5.50;99.90
22130;DHT22;11231;50.746;4.272;2023-12-04T14:17:45;5.50;99.90
22130;DHT22;11231;50.746;4.272;2023-12-04T14:20:12;5.50;99.90
22130;DHT22;11231;50.746;4.272;2023-12-04T14:22:44;5.60;99.90
22130;DHT22;11231;50.746;4.272;2023-12-04T14:25:11;5.60;99.90
22130;DHT22;11231;50.746;4.272;2023-12-04T14:27:37;5.70;99.90
22130;DHT22;11231;50.746;4.272;2023-12-04T14:30:07;5.70;99.90
22130;DHT22;11231;50.746;4.272;2023-12-04T14:32:34;5.70;99.90
22130;DHT22;11231;50.746;4.272;2023-12-04T14:35:01;5.60;99.90
22130;DHT22;11231;50.746;4.272;2023-12-04T14:37:27;5.70;99.90
22130;DHT22;11231;50.746;4.272;2023-12-04T14:39:53;5.60;99.90
22130;DHT22;11231;50.746;4.272;2023-12-04T14:42:18;5.60;99.90
22130;DHT22;11231;50.746;4.272;2023-12-04T14:44:44;5.70;99.90
22130;DHT22;11231;50.746;4.272;2023-12-04T14:47:10;5.70;99.90
22130;DHT22;11231;50.746;4.272;2023-12-04T14:49:37;5.70;99.90
22130;DHT22;11231;50.746;4.272;2023-12-04T14:52:03;5.70;99.90
22130;DHT22;11231;50.746;4.272;2023-12-04T14:54:31;5.80;99.90
22130;DHT22;11231;50.746;4.272;2023-12-04T14:57:18;5.80;99.90
22130;DHT22;11231;50.746;4.272;2023-12-04T15:00:03;5.80;99.90
22130;DHT22;11231;50.746;4.272;2023-12-04T15:02:47;5.90;99.90
22130;DHT22;11231;50.746;4.272;2023-12-04T15:05:13;5.90;99.90
22130;DHT22;11231;50.746;4.272;2023-12-04T15:08:05;5.80;99.90
22130;DHT22;11231;50.746;4.272;2023-12-04T15:10:33;5.80;99.90
22130;DHT22;11231;50.746;4.272;2023-12-04T15:13:25;5.90;99.90
22130;DHT22;11231;50.746;4.272;2023-12-04T15:16:17;5.90;99.90
22130;DHT22;11231;50.746;4.272;2023-12-04T15:18:52;5.90;99.90
22130;DHT22;11231;50.746;4.272;2023-12-04T15:21:18;5.80;99.90
22130;DHT22;11231;50.746;4.272;2023-12-04T15:23:44;5.70;99.90
22130;DHT22;11231;50.746;4.272;2023-12-04T15:26:10;5.80;99.90
22130;DHT22;11231;50.746;4.272;2023-12-04T15:28:36;5.90;99.90
22130;DHT22;11231;50.746;4.272;2023-12-04T15:31:02;5.80;99.90
22130;DHT22;11231;50.746;4.272;2023-12-04T15:33:28;5.90;99.90
22130;DHT22;11231;50.746;4.272;2023-12-04T15:35:54;5.90;99.90
22130;DHT22;11231;50.746;4.272;2023-12-04T15:38:20;5.90;99.90
22130;DHT22;11231;50.746;4.272;2023-12-04T15:40:47;6.00;99.90
22130;DHT22;11231;50.746;4.272;2023-12-04T15:43:13;6.00;99.90
22130;DHT22;11231;50.746;4.272;2023-12-04T15:45:39;6.10;99.90
22130;DHT22;11231;50.746;4.272;2023-12-04T15:48:05;6.00;99.90
22130;DHT22;11231;50.746;4.272;2023-12-04T15:50:32;6.00;99.90
22130;DHT22;11231;50.746;4.272;2023-12-04T15:52:57;6.10;99.90